LSGC Airport Information

Runway Information
Runway 06 Length 3707 ft width 89 ft
Elevation 3368 ft Threshold 230 ft Heading 54
Runway 24 Length 3707 ft Width 89 ft
Elevation 3343 ft Threshold 328 ft Heading 234
Airport Frequencies
Type TWR Name TWR Frequency 118.125 MHZ
Airport Navaids
Type NDB Name Les Eplatures Frequency 403 KHZ
Airport Weather Information & NOTAM
ADDS - METARS form results

(0149 UTC 19 January 2018)
 
METAR text: LSGC 190120Z AUTO 26008KT 220V310 //// // BKN010 02/02 Q1009
Conditions at: LSGC (LES EPLATURES , CH) observed 0120 UTC 19 January 2018
Temperature: 2.0°C (36°F)
Dewpoint: 2.0°C (36°F) [RH = 100%]
Pressure (altimeter): 29.79 inches Hg (1009.0 mb)
Winds: from the W (260 degrees) at 9 MPH (8 knots; 4.2 m/s)
Visibility: missing
Ceiling: 1000 feet AGL
Clouds: broken clouds at 1000 feet AGL
Weather: no significant weather observed at this time

METAR text: LSGC 190050Z AUTO 23006KT 200V260 //// // FEW007 00/00 Q1010
Conditions at: LSGC (LES EPLATURES , CH) observed 0050 UTC 19 January 2018
Temperature: 0.0°C (32°F)
Dewpoint: 0.0°C (32°F) [RH = 100%]
Pressure (altimeter): 29.82 inches Hg (1010.0 mb)
Winds: from the SW (230 degrees) at 7 MPH (6 knots; 3.1 m/s)
Visibility: missing
Ceiling: at least 12,000 feet AGL
Clouds: few clouds at 700 feet AGL
Weather: no significant weather observed at this time